createdAt,value
2018-06-23T00:00:32.025Z,67.66
2018-06-23T00:01:13.211Z,67.66
2018-06-23T00:01:53.954Z,67.85
2018-06-23T00:02:34.245Z,67.76
2018-06-23T00:03:14.788Z,67.76
2018-06-23T00:03:57.192Z,68.23
2018-06-23T00:04:39.526Z,68.23
2018-06-23T00:05:19.853Z,68.33
2018-06-23T00:06:00.248Z,68.04
2018-06-23T00:06:41.002Z,67.94
2018-06-23T00:07:21.854Z,68.33
2018-06-23T00:08:02.903Z,68.27
2018-06-23T00:08:43.540Z,68.23
2018-06-23T00:09:25.640Z,68.13
2018-06-23T00:10:08.236Z,68.33
2018-06-23T00:10:48.447Z,68.13
2018-06-23T00:11:28.863Z,68.23
2018-06-23T00:12:09.187Z,68.13
2018-06-23T00:12:51.881Z,68.13
2018-06-23T00:13:32.383Z,68.04
2018-06-23T00:14:12.802Z,68.13
2018-06-23T00:14:53.227Z,68.52
2018-06-23T00:15:34.092Z,68.23
2018-06-23T00:16:14.477Z,68.42
2018-06-23T00:16:54.881Z,67.94
2018-06-23T00:17:35.674Z,68.33
2018-06-23T00:18:16.096Z,68.52
2018-06-23T00:18:56.454Z,68.33
2018-06-23T00:19:36.924Z,68.23
2018-06-23T00:20:17.301Z,68.04
2018-06-23T00:20:57.760Z,68.23
2018-06-23T00:21:38.247Z,68.13
2018-06-23T00:22:18.784Z,68.71
2018-06-23T00:22:59.118Z,69.09
2018-06-23T00:23:39.527Z,68.42
2018-06-23T00:24:19.987Z,69.19
2018-06-23T00:25:00.318Z,69.19
2018-06-23T00:25:40.789Z,69.57
2018-06-23T00:26:21.134Z,68.9
2018-06-23T00:27:01.682Z,68.9
2018-06-23T00:27:42.801Z,68.71
2018-06-23T00:28:23.496Z,69.29
2018-06-23T00:29:03.788Z,69.57
2018-06-23T00:29:44.229Z,69.38
2018-06-23T00:30:24.609Z,69.73
2018-06-23T00:31:05.115Z,69.73
2018-06-23T00:31:46.152Z,69.73
2018-06-23T00:32:26.525Z,69.64
2018-06-23T00:33:06.961Z,69.82
2018-06-23T00:33:47.355Z,69.73
2018-06-23T00:34:27.735Z,70.11
2018-06-23T00:35:08.174Z,70.59
2018-06-23T00:35:48.710Z,70.3
2018-06-23T00:36:29.018Z,70.3
2018-06-23T00:37:09.959Z,70.5
2018-06-23T00:37:50.451Z,70.68
2018-06-23T00:38:30.941Z,70.87
2018-06-23T00:39:11.295Z,71.26
2018-06-23T00:39:51.722Z,71.26
2018-06-23T00:40:32.157Z,71.99
2018-06-23T00:41:12.537Z,71.7
2018-06-23T00:41:52.996Z,71.51
2018-06-23T00:42:33.447Z,71.99
2018-06-23T00:43:13.833Z,72.28
2018-06-23T00:43:54.261Z,72.47
2018-06-23T00:44:37.799Z,72.47
2018-06-23T00:45:18.216Z,72.85
2018-06-23T00:45:58.617Z,72.94
2018-06-23T00:46:39.129Z,72.94
2018-06-23T00:47:19.541Z,72.66
2018-06-23T00:47:59.983Z,72.75
2018-06-23T00:48:40.459Z,72.85
2018-06-23T00:49:21.003Z,72.75
2018-06-23T00:50:02.261Z,72.85
2018-06-23T00:50:44.441Z,72.66
2018-06-23T00:51:29.507Z,73.43
2018-06-23T00:52:11.627Z,73.33
2018-06-23T00:52:52.264Z,73.43
2018-06-23T00:53:32.961Z,72.85
2018-06-23T00:54:13.242Z,72.47
2018-06-23T00:54:53.707Z,72.66
2018-06-23T00:55:34.189Z,72.94
2018-06-23T00:56:14.820Z,73.33
2018-06-23T00:56:55.215Z,72.94
2018-06-23T00:57:35.562Z,73.04
2018-06-23T00:58:16.212Z,72.75
2018-06-23T00:58:56.527Z,73.04
2018-06-23T00:59:36.962Z,72.75
2018-06-23T01:00:17.334Z,73.43
2018-06-23T01:00:57.866Z,72.94
2018-06-23T01:01:38.625Z,73.52
2018-06-23T01:02:20.724Z,72.66
2018-06-23T01:03:01.324Z,73.04
2018-06-23T01:03:41.687Z,73.71
2018-06-23T01:04:23.573Z,72.75
2018-06-23T01:05:03.122Z,73.43
2018-06-23T01:05:43.647Z,73.23
2018-06-23T01:06:24.113Z,73.23
2018-06-23T01:07:04.626Z,73.33
2018-06-23T01:07:44.926Z,73.39
2018-06-23T01:08:25.407Z,73.48
2018-06-23T01:09:05.837Z,73.77
2018-06-23T01:09:49.731Z,74.05
2018-06-23T01:10:29.262Z,74.53
2018-06-23T01:11:09.800Z,74.44
2018-06-23T01:11:50.430Z,74.24
2018-06-23T01:12:31.233Z,74.53
2018-06-23T01:18:07.812Z,75.2
2018-06-23T01:33:49.231Z,76.88
2018-06-23T01:34:29.624Z,77.36
2018-06-23T01:35:10.081Z,76.69
2018-06-23T01:35:50.492Z,76.79
2018-06-23T01:36:30.906Z,77.17
2018-06-23T01:38:58.308Z,77.65
2018-06-23T01:43:17.338Z,77.17
2018-06-23T01:59:39.195Z,75.3
2018-06-23T02:03:40.040Z,74.63
2018-06-23T02:20:12.486Z,74.66
2018-06-23T02:20:53.572Z,74.34
2018-06-23T02:21:35.237Z,74.34
2018-06-23T02:22:16.022Z,74.44
2018-06-23T02:22:56.262Z,74.63
2018-06-23T02:23:36.669Z,74.44
2018-06-23T02:24:19.460Z,74.53
2018-06-23T02:24:59.975Z,74.63
2018-06-23T02:25:40.760Z,75.01
2018-06-23T02:26:20.983Z,74.63
2018-06-23T02:27:03.276Z,74.73
2018-06-23T02:27:43.663Z,75.01
2018-06-23T02:28:24.612Z,75.01
2018-06-23T02:29:04.637Z,75.1
2018-06-23T02:29:45.056Z,75.01
2018-06-23T02:30:25.565Z,75.01
2018-06-23T02:31:06.610Z,75.2
2018-06-23T02:31:46.833Z,74.73
2018-06-23T02:32:27.482Z,75.1
2018-06-23T02:33:07.807Z,74.91
2018-06-23T02:33:48.297Z,75.1
2018-06-23T02:34:28.756Z,75.2
2018-06-23T02:35:09.072Z,75.2
2018-06-23T02:35:49.460Z,74.73
2018-06-23T02:36:29.960Z,75.01
2018-06-23T02:37:11.209Z,75.26
2018-06-23T02:38:10.359Z,75.74
2018-06-23T02:38:50.562Z,75.45
2018-06-23T02:39:31.059Z,75.54
2018-06-23T02:49:50.829Z,77.32
2018-06-23T02:53:23.843Z,77.61
2018-06-23T02:57:26.799Z,78.75
2018-06-23T03:08:48.965Z,79.38
2018-06-23T03:10:38.045Z,79.67
2018-06-23T03:19:34.120Z,82.34
2018-06-23T03:22:25.189Z,81.38
2018-06-23T03:23:05.926Z,80.15
2018-06-23T03:23:46.556Z,80.81
2018-06-23T03:24:26.968Z,80.72
2018-06-23T03:25:07.464Z,80.09
2018-06-23T03:25:47.958Z,80.66
2018-06-23T03:26:30.703Z,80.38
2018-06-23T03:27:11.177Z,79.71
2018-06-23T03:27:51.926Z,79.43
2018-06-23T03:28:37.202Z,79.71
2018-06-23T03:29:17.791Z,79.23
2018-06-23T03:29:59.851Z,79.43
2018-06-23T03:30:44.647Z,79.33
2018-06-23T03:31:25.153Z,78.75
2018-06-23T03:32:12.753Z,78.99
2018-06-23T03:34:39.247Z,78.03
2018-06-23T03:35:27.014Z,77.55
2018-06-23T03:49:11.828Z,73.52
2018-06-23T03:49:50.451Z,73.43
2018-06-23T03:50:30.860Z,73.23
2018-06-23T03:51:15.099Z,73.23
2018-06-23T03:56:27.039Z,73.43
2018-06-23T03:57:08.605Z,73.61
2018-06-23T03:57:48.993Z,73.61
2018-06-23T03:58:29.647Z,73.23
2018-06-23T03:59:10.064Z,73.71
2018-06-23T03:59:50.451Z,73.8
2018-06-23T04:00:30.743Z,73.23
2018-06-23T04:01:11.168Z,73.43
2018-06-23T04:01:51.928Z,72.56
2018-06-23T04:42:03.822Z,62.04
2018-06-23T04:47:19.075Z,60.35
2018-06-23T04:47:59.806Z,60.05
2018-06-23T04:48:41.025Z,59.67
2018-06-23T04:49:22.085Z,58.81
2018-06-23T04:50:02.665Z,58.64
2018-06-23T04:50:42.969Z,58.36
2018-06-23T04:51:23.355Z,57.97
2018-06-23T04:52:03.839Z,57.78
2018-06-23T04:52:44.250Z,56.95
2018-06-23T04:53:25.158Z,56.66
2018-06-23T04:54:05.562Z,56.66
2018-06-23T04:54:46.008Z,56.56
2018-06-23T04:55:27.028Z,56.11
2018-06-23T04:56:07.350Z,55.82
2018-06-23T04:56:47.735Z,54.86
2018-06-23T04:57:29.326Z,54.47
2018-06-23T04:58:09.657Z,53.74
2018-06-23T04:58:50.061Z,53.16
2018-06-23T04:59:30.922Z,53.25
2018-06-23T05:00:11.528Z,52.58
2018-06-23T05:00:53.749Z,52.68
2018-06-23T05:01:32.844Z,53.64
2018-06-23T05:02:13.279Z,53.42
2018-06-23T05:02:53.718Z,54.19
2018-06-23T05:03:34.157Z,54.09
2018-06-23T05:04:14.940Z,54.86
2018-06-23T05:04:55.397Z,54
2018-06-23T05:05:35.740Z,54.19
2018-06-23T05:06:16.265Z,54.22
2018-06-23T05:06:56.697Z,53.45
2018-06-23T05:07:37.146Z,52.7
2018-06-23T05:08:20.803Z,52.22
2018-06-23T05:09:00.288Z,51.19
2018-06-23T05:09:41.023Z,51.38
2018-06-23T05:10:22.130Z,50.61
2018-06-23T05:11:02.485Z,50.35
2018-06-23T05:11:42.931Z,49.96
2018-06-23T05:12:24.316Z,49.51
2018-06-23T05:13:05.262Z,49.12
2018-06-23T05:13:46.790Z,48.44
2018-06-23T05:14:29.730Z,48.18
2018-06-23T05:15:10.575Z,47.89
2018-06-23T05:15:50.925Z,47.22
2018-06-23T05:16:32.326Z,46.93
2018-06-23T05:17:13.784Z,46.45
2018-06-23T05:17:54.039Z,46.64
2018-06-23T05:18:34.577Z,47.03
2018-06-23T05:19:16.144Z,46.83
2018-06-23T05:19:56.600Z,46.55
2018-06-23T05:20:37.861Z,46.66
2018-06-23T05:21:17.683Z,45.79
2018-06-23T05:21:58.092Z,45.99
2018-06-23T05:22:38.477Z,45.89
2018-06-23T05:23:21.764Z,45.51
2018-06-23T05:24:02.330Z,45.14
2018-06-23T05:24:42.506Z,45.14
2018-06-23T05:25:22.955Z,45.14
2018-06-23T05:26:03.505Z,44.37
2018-06-23T05:26:45.646Z,44.59
2018-06-23T05:27:31.644Z,44.1
2018-06-23T05:29:22.218Z,42.97
2018-06-23T05:30:03.442Z,42.97
2018-06-23T05:30:43.856Z,42.68
2018-06-23T05:31:24.619Z,42.41
2018-06-23T05:32:06.359Z,41.73
2018-06-23T05:32:47.261Z,41.66
2018-06-23T05:33:27.959Z,41.66
2018-06-23T05:34:08.840Z,41.27
2018-06-23T05:34:49.454Z,41.27
2018-06-23T05:35:30.090Z,40.88
2018-06-23T05:36:10.843Z,40.5
2018-06-23T05:36:51.242Z,40.23
2018-06-23T05:37:32.045Z,40.4
2018-06-23T05:38:12.555Z,40.4
2018-06-23T05:38:53.693Z,40.13
2018-06-23T05:39:34.123Z,39.84
2018-06-23T05:40:15.932Z,39.64
2018-06-23T05:40:56.516Z,38.79
2018-06-23T05:41:36.851Z,38.79
2018-06-23T05:42:17.777Z,39.09
2018-06-23T05:42:58.394Z,38.89
2018-06-23T05:43:38.802Z,38.99
2018-06-23T05:44:20.558Z,38.6
2018-06-23T05:45:01.362Z,38.79
2018-06-23T05:45:41.984Z,38.99
2018-06-23T05:46:22.683Z,39.09
2018-06-23T05:47:03.453Z,38.99
2018-06-23T05:47:43.928Z,39.26
2018-06-23T05:48:24.781Z,39.36
2018-06-23T05:49:05.084Z,39.53
2018-06-23T05:49:45.709Z,39.82
2018-06-23T05:50:26.264Z,41.42
2018-06-23T05:51:07.513Z,41.61
2018-06-23T05:51:50.251Z,41.93
2018-06-23T05:52:30.498Z,41.61
2018-06-23T05:53:12.225Z,41.61
2018-06-23T05:53:52.648Z,41.81
2018-06-23T05:54:33.419Z,42.1
2018-06-23T05:55:14.673Z,41.81
2018-06-23T05:55:55.909Z,41.91
2018-06-23T05:56:36.877Z,41.35
2018-06-23T05:57:18.025Z,40.96
2018-06-23T05:57:59.272Z,40.01
2018-06-23T05:58:41.076Z,40.3
2018-06-23T05:59:21.841Z,40.3
2018-06-23T06:00:02.577Z,40.69
2018-06-23T06:00:43.331Z,41.25
2018-06-23T06:01:23.552Z,41.35
2018-06-23T06:02:04.966Z,41.91
2018-06-23T06:02:46.101Z,42.36
2018-06-23T06:03:27.612Z,42.66
2018-06-23T06:04:08.278Z,43.12
2018-06-23T06:04:48.938Z,43.98
2018-06-23T06:05:29.443Z,44.64
2018-06-23T06:06:10.230Z,45.31
2018-06-23T06:06:51.372Z,45.1
2018-06-23T06:07:31.627Z,46.06
2018-06-23T06:08:13.512Z,46.35
2018-06-23T06:08:55.061Z,46.62
2018-06-23T06:09:35.719Z,46.91
2018-06-23T06:10:16.954Z,47.65
2018-06-23T06:10:58.562Z,48.13
2018-06-23T06:11:39.087Z,49.1
2018-06-23T06:15:02.509Z,51.17
2018-06-23T06:15:42.921Z,51.35
2018-06-23T06:16:23.757Z,51.91
2018-06-23T06:17:04.440Z,51.84
2018-06-23T06:17:45.143Z,51.81
2018-06-23T06:18:25.899Z,52.48
2018-06-23T06:19:07.809Z,52.68
2018-06-23T06:19:48.175Z,53.06
2018-06-23T06:20:29.328Z,53.25
2018-06-23T06:21:10.101Z,53.42
2018-06-23T06:21:50.543Z,53.42
2018-06-23T06:22:31.071Z,53.7
2018-06-23T06:23:11.587Z,54.06
2018-06-23T06:23:51.981Z,54.74
2018-06-23T06:24:34.523Z,55.22
2018-06-23T06:25:16.692Z,55.89
2018-06-23T06:25:57.350Z,56.15
2018-06-23T06:26:38.736Z,56.53
2018-06-23T06:27:18.944Z,56.24
2018-06-23T06:27:59.463Z,56.63
2018-06-23T06:28:40.304Z,56.44
2018-06-23T06:29:21.350Z,56.63
2018-06-23T06:30:01.719Z,56.82
2018-06-23T06:30:42.318Z,56.63
2018-06-23T06:31:23.325Z,57.4
2018-06-23T06:32:03.693Z,57.3
2018-06-23T06:32:44.237Z,57.11
2018-06-23T06:33:24.602Z,57.11
2018-06-23T06:34:05.034Z,57.3
2018-06-23T06:34:45.475Z,57.11
2018-06-23T06:35:25.878Z,57.23
2018-06-23T06:36:06.712Z,57.21
2018-06-23T06:36:48.823Z,56.73
2018-06-23T06:37:29.871Z,56.73
2018-06-23T06:38:10.136Z,57.11
2018-06-23T06:38:52.731Z,57.68
2018-06-23T06:39:33.172Z,57.4
2018-06-23T06:40:13.876Z,57.21
2018-06-23T06:40:54.331Z,57.23
2018-06-23T06:41:34.668Z,57.33
2018-06-23T06:42:15.207Z,57.04
2018-06-23T06:42:56.541Z,56.76
2018-06-23T06:43:38.522Z,56.46
2018-06-23T06:44:18.950Z,56.18
2018-06-23T06:44:59.473Z,56.37
2018-06-23T06:45:41.198Z,56.18
2018-06-23T06:46:21.370Z,56.18
2018-06-23T06:47:02.195Z,56.46
2018-06-23T06:47:42.294Z,56.08
2018-06-23T06:48:22.748Z,55.91
2018-06-23T06:49:04.088Z,55.73
2018-06-23T06:49:44.798Z,55.63
2018-06-23T06:50:25.652Z,55.24
2018-06-23T06:51:06.461Z,55.44
2018-06-23T06:51:46.905Z,55.24
2018-06-23T06:52:27.800Z,55.51
2018-06-23T06:53:08.355Z,55.69
2018-06-23T06:53:49.393Z,55.79
2018-06-23T06:54:29.885Z,56.37
2018-06-23T06:55:10.428Z,56.46
2018-06-23T06:55:50.904Z,56.76
2018-06-23T06:56:34.548Z,56.66
2018-06-23T06:57:14.908Z,56.56
2018-06-23T06:57:55.281Z,56.56
2018-06-23T06:58:35.683Z,56.56
2018-06-23T06:59:16.281Z,56.37
2018-06-23T06:59:56.720Z,56.56
2018-06-23T07:00:37.130Z,56.76
2018-06-23T07:01:19.223Z,56.76
2018-06-23T07:01:59.809Z,56.27
2018-06-23T07:02:40.123Z,56.95
2018-06-23T07:03:21.211Z,56.56
2018-06-23T07:04:02.391Z,56.37
2018-06-23T07:04:42.832Z,56.76
2018-06-23T07:05:23.845Z,56.66
2018-06-23T07:06:04.246Z,56.76
2018-06-23T07:06:45.648Z,56.46
2018-06-23T07:07:26.220Z,56.56
2018-06-23T07:08:07.481Z,56.27
2018-06-23T07:08:49.156Z,56.66
2018-06-23T07:09:29.797Z,56.46
2018-06-23T07:10:10.113Z,56.18
2018-06-23T07:10:54.354Z,56.37
2018-06-23T07:11:35.884Z,56.46
2018-06-23T07:12:16.290Z,56.95
2018-06-23T07:12:57.152Z,56.56
2018-06-23T07:13:37.556Z,56.76
2018-06-23T07:14:17.991Z,56.85
2018-06-23T07:15:00.341Z,56.82
2018-06-23T07:15:40.951Z,57.14
2018-06-23T07:16:21.232Z,57.23
2018-06-23T07:17:03.397Z,57.14
2018-06-23T07:17:44.191Z,56.76
2018-06-23T07:18:24.702Z,56.85
2018-06-23T07:19:05.511Z,56.76
2018-06-23T07:19:45.856Z,56.76
2018-06-23T07:20:27.226Z,56.66
2018-06-23T07:21:07.542Z,56.56
2018-06-23T07:21:49.027Z,56.37
2018-06-23T07:22:29.590Z,56.27
2018-06-23T07:23:10.090Z,56.76
2018-06-23T07:23:51.001Z,56.76
2018-06-23T07:24:31.126Z,56.85
2018-06-23T07:25:13.451Z,56.76
2018-06-23T07:25:53.947Z,56.95
2018-06-23T07:26:34.346Z,57.23
2018-06-23T07:27:15.210Z,57.14
2018-06-23T07:27:55.617Z,56.85
2018-06-23T07:28:36.199Z,57.04
2018-06-23T07:29:17.402Z,57.04
2018-06-23T07:29:57.707Z,57.04
2018-06-23T07:30:40.032Z,56.85
2018-06-23T07:31:21.883Z,57.43
2018-06-23T07:32:02.515Z,57.04
2018-06-23T07:32:43.037Z,57.23
2018-06-23T07:33:23.743Z,57.23
2018-06-23T07:34:05.556Z,57.68
2018-06-23T07:34:46.121Z,57.78
2018-06-23T07:35:26.847Z,57.88
2018-06-23T07:36:08.132Z,57.78
2018-06-23T07:36:49.731Z,57.97
2018-06-23T07:37:31.150Z,57.78
2018-06-23T07:38:13.148Z,57.97
2018-06-23T07:38:54.259Z,57.88
2018-06-23T07:39:34.631Z,58.07
2018-06-23T07:40:15.057Z,57.88
2018-06-23T07:40:55.616Z,57.88
2018-06-23T07:41:37.596Z,57.88
2018-06-23T07:42:18.678Z,58.55
2018-06-23T07:43:01.479Z,58.26
2018-06-23T07:43:42.386Z,58.74
2018-06-23T07:44:22.544Z,58.64
2018-06-23T07:45:03.503Z,58.26
2018-06-23T07:45:43.906Z,58.26
2018-06-23T07:46:25.038Z,58.36
2018-06-23T07:47:06.127Z,58.84
2018-06-23T07:47:46.432Z,58.67
2018-06-23T07:48:26.876Z,58.74
2018-06-23T07:49:07.406Z,58.67
2018-06-23T07:49:48.680Z,58.74
2018-06-23T07:50:29.740Z,58.77
2018-06-23T07:51:10.851Z,59.16
2018-06-23T07:51:51.578Z,59.16
2018-06-23T07:52:32.792Z,58.94
2018-06-23T07:53:14.954Z,58.87
2018-06-23T07:53:55.370Z,58.96
2018-06-23T07:54:36.803Z,59.16
2018-06-23T07:55:16.974Z,58.77
2018-06-23T07:55:57.659Z,59.34
2018-06-23T07:56:38.924Z,59.25
2018-06-23T07:57:19.936Z,58.77
2018-06-23T07:58:00.413Z,59.16
2018-06-23T07:58:42.076Z,58.77
2018-06-23T07:59:22.348Z,58.87
2018-06-23T08:00:04.176Z,58.77
2018-06-23T08:00:46.969Z,58.67
2018-06-23T08:01:28.637Z,59.34
2018-06-23T08:02:09.360Z,59.16
2018-06-23T08:02:49.546Z,58.87
2018-06-23T08:03:31.230Z,59.06
2018-06-23T08:04:11.766Z,59.73
2018-06-23T08:04:53.146Z,59.34
2018-06-23T08:05:33.760Z,59.34
2018-06-23T08:06:14.988Z,59.64
2018-06-23T08:06:55.893Z,60.02
2018-06-23T08:07:36.253Z,60.31
2018-06-23T08:08:17.078Z,60.4
2018-06-23T08:08:58.252Z,60.5
2018-06-23T08:09:38.962Z,60.18
2018-06-23T08:10:19.504Z,60.5
2018-06-23T08:11:00.407Z,60.6
2018-06-23T08:11:41.142Z,61.55
2018-06-23T08:12:21.756Z,61.43
2018-06-23T08:13:02.782Z,61.17
2018-06-23T08:13:43.971Z,60.95
2018-06-23T08:14:25.426Z,60.6
2018-06-23T08:15:05.910Z,60.78
2018-06-23T08:15:46.389Z,60.21
2018-06-23T08:16:26.820Z,60.02
2018-06-23T08:17:07.964Z,59.83
2018-06-23T08:17:48.419Z,59.34
2018-06-23T08:18:29.715Z,59.34
2018-06-23T08:19:10.795Z,59.83
2018-06-23T08:19:51.727Z,59.34
2018-06-23T08:20:31.996Z,59.73
2018-06-23T08:21:13.021Z,58.87
2018-06-23T08:21:53.357Z,58.96
2018-06-23T08:22:34.452Z,58.77
2018-06-23T08:23:16.041Z,59.25
2018-06-23T08:23:55.988Z,59.44
2018-06-23T08:24:37.287Z,59.25
2018-06-23T08:25:17.163Z,58.87
2018-06-23T08:25:57.766Z,59.06
2018-06-23T08:26:40.160Z,58.77
2018-06-23T08:27:20.348Z,58.39
2018-06-23T08:28:00.916Z,58.39
2018-06-23T08:28:41.701Z,57.81
2018-06-23T08:29:22.410Z,58.48
2018-06-23T08:30:02.948Z,58.2
2018-06-23T08:30:43.299Z,58.48
2018-06-23T08:31:23.700Z,58.29
2018-06-23T08:32:04.069Z,58.61
2018-06-23T08:32:44.478Z,58.03
2018-06-23T08:33:28.765Z,57.93
2018-06-23T08:34:09.030Z,57.84
2018-06-23T08:34:49.995Z,57.84
2018-06-23T08:35:30.547Z,57.75
2018-06-23T08:36:11.312Z,57.26
2018-06-23T08:36:51.948Z,56.81
2018-06-23T08:37:33.689Z,56.91
2018-06-23T08:38:16.241Z,56.91
2018-06-23T08:38:56.357Z,56.62
2018-06-23T08:39:37.791Z,56.52
2018-06-23T08:40:18.625Z,56.04
2018-06-23T08:40:59.297Z,56.07
2018-06-23T08:41:40.246Z,55.88
2018-06-23T08:42:21.452Z,55.4
2018-06-23T08:43:02.135Z,55.3
2018-06-23T08:43:42.593Z,55.01
2018-06-23T08:44:23.469Z,54.72
2018-06-23T08:45:04.329Z,54.91
2018-06-23T08:45:44.426Z,55.11
2018-06-23T08:46:25.928Z,54.63
2018-06-23T08:47:06.723Z,54.53
2018-06-23T08:47:47.307Z,54.34
2018-06-23T08:48:27.867Z,54.75
2018-06-23T08:49:08.325Z,54.75
2018-06-23T08:49:49.182Z,54.17
2018-06-23T08:50:31.404Z,54.27
2018-06-23T08:51:12.333Z,54.17
2018-06-23T08:51:52.542Z,53.59
2018-06-23T08:52:34.077Z,53.21
2018-06-23T08:53:14.631Z,52.75
2018-06-23T08:53:55.014Z,52.56
2018-06-23T08:54:36.377Z,52.27
2018-06-23T08:55:18.418Z,51.7
2018-06-23T08:55:59.374Z,51.7
2018-06-23T08:56:39.901Z,51.6
2018-06-23T08:57:20.561Z,52.08
2018-06-23T08:58:03.832Z,52.08
2018-06-23T08:58:44.260Z,52.08
2018-06-23T08:59:25.611Z,51.6
2018-06-23T09:00:06.192Z,51.7
2018-06-23T09:00:46.871Z,51.92
2018-06-23T09:01:27.091Z,51.14
2018-06-23T09:02:08.461Z,51.53
2018-06-23T09:02:50.319Z,51.24
2018-06-23T09:03:30.874Z,50.88
2018-06-23T09:04:11.303Z,49.91
2018-06-23T09:04:53.798Z,49.82
2018-06-23T09:05:34.458Z,49.65
2018-06-23T09:06:14.944Z,48.97
2018-06-23T09:06:55.465Z,48.97
2018-06-23T09:07:36.016Z,48.49
2018-06-23T09:08:16.704Z,48.79
2018-06-23T09:08:56.957Z,48.23
2018-06-23T09:09:37.405Z,47.82
2018-06-23T09:10:18.023Z,47.75
2018-06-23T09:10:58.611Z,47.45
2018-06-23T09:11:40.091Z,47.45
2018-06-23T09:12:20.692Z,47.45
2018-06-23T09:13:02.354Z,47.19
2018-06-23T09:13:43.362Z,47.27
2018-06-23T09:14:23.760Z,47.27
2018-06-23T09:15:04.165Z,47.36
2018-06-23T09:15:45.188Z,47.17
2018-06-23T09:16:25.364Z,47.19
2018-06-23T09:17:05.921Z,47.58
2018-06-23T09:17:47.092Z,47.07
2018-06-23T09:18:28.453Z,46.9
2018-06-23T09:19:08.889Z,46.61
2018-06-23T09:19:49.339Z,46.78
2018-06-23T09:20:30.534Z,47.07
2018-06-23T09:21:11.723Z,47
2018-06-23T09:21:52.194Z,47
2018-06-23T09:22:32.693Z,46.51
2018-06-23T09:23:13.048Z,46.23
2018-06-23T09:23:53.405Z,45.84
2018-06-23T09:24:34.388Z,46.06
2018-06-23T09:25:15.366Z,45.38
2018-06-23T09:25:56.284Z,44.73
2018-06-23T09:26:37.930Z,43.85
2018-06-23T09:27:18.207Z,43.49
2018-06-23T09:27:58.988Z,43.78
2018-06-23T09:28:39.352Z,42.72
2018-06-23T09:29:19.815Z,42.72
2018-06-23T09:30:00.365Z,42.82
2018-06-23T09:30:40.963Z,42.25
2018-06-23T09:31:22.109Z,42.16
2018-06-23T09:32:02.456Z,41.87
2018-06-23T09:32:42.869Z,41.58
2018-06-23T09:33:24.811Z,41.48
2018-06-23T09:34:04.845Z,41.19
2018-06-23T09:34:45.189Z,41.77
2018-06-23T09:35:25.678Z,41.67
2018-06-23T09:36:06.380Z,41.77
2018-06-23T09:36:46.877Z,41.77
2018-06-23T09:37:27.471Z,41.77
2018-06-23T09:38:07.917Z,41.97
2018-06-23T09:38:48.663Z,41.97
2018-06-23T09:39:30.283Z,41.87
2018-06-23T09:40:10.395Z,41.77
2018-06-23T09:40:51.266Z,42.52
2018-06-23T09:41:32.124Z,42.24
2018-06-23T09:42:12.850Z,42.72
2018-06-23T09:42:53.016Z,42.72
2018-06-23T09:43:33.432Z,42.91
2018-06-23T09:44:14.079Z,42.99
2018-06-23T09:44:54.477Z,43.28
2018-06-23T09:45:35.080Z,43.18
2018-06-23T09:46:15.786Z,42.89
2018-06-23T09:46:55.842Z,43.57
2018-06-23T09:52:32.724Z,45.36
2018-06-23T09:53:12.862Z,45.14
2018-06-23T09:53:53.551Z,45.53
2018-06-23T09:54:34.041Z,45.72
2018-06-23T09:55:14.205Z,45.72
2018-06-23T09:55:54.622Z,45.82
2018-06-23T09:56:35.001Z,45.92
2018-06-23T09:57:17.577Z,46.59
2018-06-23T09:57:57.802Z,46.47
2018-06-23T09:58:38.236Z,46.66
2018-06-23T09:59:18.644Z,46.86
2018-06-23T09:59:59.139Z,47.05
2018-06-23T10:00:40.858Z,46.78
2018-06-23T10:01:21.320Z,46.56
2018-06-23T10:02:02.712Z,46.66
2018-06-23T10:02:43.353Z,46.86
2018-06-23T10:03:23.836Z,46.86
2018-06-23T10:04:04.714Z,47.14
2018-06-23T10:44:50.576Z,51.48
2018-06-23T10:45:35.666Z,51.19
2018-06-23T10:46:18.107Z,51.29
2018-06-23T10:46:59.182Z,51.48
2018-06-23T10:47:45.050Z,51.57
2018-06-23T10:48:25.713Z,51.29
2018-06-23T10:49:06.395Z,51.29
2018-06-23T10:49:48.651Z,50.9
2018-06-23T10:50:29.056Z,50.9
2018-06-23T10:51:10.141Z,50.61
2018-06-23T10:51:50.200Z,51.19
2018-06-23T10:52:31.607Z,51.29
2018-06-23T10:53:13.174Z,50.9
2018-06-23T10:53:53.673Z,51.09
2018-06-23T10:54:34.729Z,51.12
2018-06-23T10:55:15.402Z,51.21
2018-06-23T10:55:56.402Z,50.93
2018-06-23T10:56:37.215Z,50.63
2018-06-23T10:57:17.595Z,50.45
2018-06-23T10:57:58.251Z,50.63
2018-06-23T10:58:38.887Z,50.73
2018-06-23T10:59:19.218Z,50.83
2018-06-23T10:59:59.697Z,50.63
2018-06-23T11:00:40.286Z,50.93
2018-06-23T11:01:25.701Z,50.93
2018-06-23T11:02:06.243Z,51.12
2018-06-23T11:02:46.905Z,50.83
2018-06-23T11:03:27.222Z,50.93
2018-06-23T11:04:08.183Z,51.7
2018-06-23T11:07:38.877Z,51.21
2018-06-23T11:08:16.972Z,50.45
2018-06-23T11:08:57.280Z,50.76
2018-06-23T11:09:37.820Z,49.99
2018-06-23T11:10:18.669Z,50.09
2018-06-23T11:10:58.904Z,50.18
2018-06-23T11:11:39.541Z,49.91
2018-06-23T11:12:21.569Z,49.15
2018-06-23T11:13:01.637Z,49.05
2018-06-23T11:13:42.138Z,48.86
2018-06-23T11:14:22.588Z,48.57
2018-06-23T11:15:04.778Z,48.28
2018-06-23T11:15:45.724Z,48.3
2018-06-23T11:16:26.544Z,48.01
2018-06-23T11:17:06.611Z,47.92
2018-06-23T11:17:47.027Z,47.24
2018-06-23T11:18:27.578Z,47.34
2018-06-23T11:19:07.955Z,47.63
2018-06-23T11:19:48.371Z,47.72
2018-06-23T11:20:29.016Z,47.07
2018-06-23T11:21:10.181Z,46.97
2018-06-23T11:21:50.460Z,47.07
2018-06-23T11:22:30.988Z,47.07
2018-06-23T11:23:11.529Z,46.69
2018-06-23T11:23:51.939Z,46.49
2018-06-23T11:24:32.563Z,46.78
2018-06-23T11:25:12.751Z,46.78
2018-06-23T11:25:53.157Z,46.97
2018-06-23T11:26:33.892Z,46.95
2018-06-23T11:27:14.326Z,47.05
2018-06-23T11:27:54.924Z,46.86
2018-06-23T11:28:35.907Z,47.14
2018-06-23T11:29:16.393Z,47.34
2018-06-23T11:29:58.427Z,47.63
2018-06-23T11:30:39.653Z,47.34
2018-06-23T11:31:20.396Z,47.34
2018-06-23T11:32:02.036Z,47.72
2018-06-23T11:32:42.288Z,47.82
2018-06-23T11:33:22.649Z,47.63
2018-06-23T11:34:03.193Z,47.53
2018-06-23T11:34:43.773Z,47.92
2018-06-23T11:35:24.036Z,48.18
2018-06-23T11:36:04.706Z,48.28
2018-06-23T11:36:45.715Z,48.21
2018-06-23T11:37:27.060Z,48.76
2018-06-23T11:38:06.573Z,48.38
2018-06-23T11:38:47.092Z,48.47
2018-06-23T11:39:28.531Z,48.66
2018-06-23T11:40:09.147Z,48.95
2018-06-23T11:40:49.510Z,49.05
2018-06-23T11:41:30.793Z,48.95
2018-06-23T11:42:11.380Z,48.86
2018-06-23T11:42:51.818Z,49.24
2018-06-23T11:43:33.214Z,49.34
2018-06-23T11:44:13.960Z,49.53
2018-06-23T11:44:54.500Z,49.43
2018-06-23T11:45:36.389Z,49.63
2018-06-23T11:46:17.148Z,49.6
2018-06-23T11:46:57.381Z,49.7
2018-06-23T11:47:38.680Z,49.89
2018-06-23T11:48:19.806Z,49.79
2018-06-23T11:49:01.118Z,50.18
2018-06-23T11:49:41.462Z,49.99
2018-06-23T11:50:24.076Z,50.37
2018-06-23T11:51:04.276Z,50.18
2018-06-23T11:51:44.760Z,50.66
2018-06-23T11:52:25.225Z,50.76
2018-06-23T11:53:05.655Z,50.93
2018-06-23T11:53:46.071Z,51.41
2018-06-23T11:54:27.377Z,51.41
2018-06-23T11:55:07.799Z,52.18
2018-06-23T11:55:48.676Z,51.98
2018-06-23T11:56:29.101Z,52.27
2018-06-23T11:57:11.669Z,52.27
2018-06-23T11:57:52.867Z,52.27
2018-06-23T11:58:34.422Z,52.66
2018-06-23T11:59:16.124Z,53.05
2018-06-23T11:59:58.777Z,52.66
2018-06-23T12:00:39.288Z,52.66
2018-06-23T12:01:20.115Z,52.56
2018-06-23T12:02:00.537Z,52.66
2018-06-23T12:02:42.547Z,52.75
2018-06-23T12:03:23.100Z,53.11
2018-06-23T12:04:03.422Z,53.11
2018-06-23T12:04:43.867Z,53.05
2018-06-23T12:05:24.359Z,52.73
2018-06-23T12:06:05.302Z,52.66
2018-06-23T12:06:45.999Z,52.75
2018-06-23T12:07:26.058Z,52.85
2018-06-23T12:08:08.209Z,53.14
2018-06-23T12:08:48.944Z,52.66
2018-06-23T12:09:29.540Z,52.66
2018-06-23T12:10:09.921Z,52.47
2018-06-23T12:10:52.216Z,53.05
2018-06-23T12:11:34.666Z,52.63
2018-06-23T12:12:14.680Z,53.14
2018-06-23T12:12:55.268Z,53.23
2018-06-23T12:13:37.289Z,53.43
2018-06-23T12:14:17.640Z,53.4
2018-06-23T12:14:59.305Z,53.72
2018-06-23T12:15:40.357Z,53.31
2018-06-23T12:16:23.198Z,53.43
2018-06-23T12:17:04.707Z,53.43
2018-06-23T12:17:45.056Z,53.53
2018-06-23T12:18:26.038Z,53.43
2018-06-23T12:19:06.346Z,52.95
2018-06-23T12:19:47.708Z,52.47
2018-06-23T12:20:29.138Z,52.47
2018-06-23T12:21:09.441Z,52.66
2018-06-23T12:21:49.815Z,52.47